• Join FlightAware (Why Join?)
  • Login
  • US Flag 
11:46AM EDT


 

Airport Tracker/Info


-or-


 

Live Flight TrackerFlight Track Log ✈ SKW5631 ✈ 02-May-2013 ✈ KSFO - KBUR

Flight Track Log - Related Links

Times and Time Zones

All times are in EDT time to prevent confusion due to time zone crossing. See the SKW5631 flight status page for this flight to view local times or setup timezone preferences in your user account.

Time Position Orientation Groundspeed Altitude Reporting Facility
EDT Latitude Longitude Course Direction KTS MPH feet Rate Location/Type
10:06PM 37.6500 -122.3667 135° Southeast 160 184 1,500  Level Northern Cal TRACON
10:06PM 37.6606 -122.3664 North 172 198 2,200 2,280 Climbing Oakland Center
10:07PM 37.6833 -122.3833 330° Northwest 199 229 3,600 3,060 Climbing Northern Cal TRACON
10:08PM 37.6333 -122.4333 218° Southwest 219 252 6,600 2,700 Climbing Northern Cal TRACON
10:08PM 37.6047 -122.4406 191° South 216 249 8,000 2,760 Climbing Oakland Center
10:09PM 37.3931 -122.2813 130° Southeast  Level FlightAware Approximate
10:09PM 37.5439 -122.4564 192° South 219 252 11,100  Level Oakland Center
10:10PM 37.3082 -122.1765 136° Southeast  Level FlightAware Approximate
10:10PM 37.4883 -122.3969 140° Southeast 272 313 11,600  Level Oakland Center
10:11PM 37.2327 -122.0618 135° Southeast  Level FlightAware Approximate
10:11PM 37.4203 -122.3222 139° Southeast 320 368 13,100  Level Oakland Center
10:12PM 37.3492 -122.2442 139° Southeast 338 389 14,700 1,740 Climbing Oakland Center
10:13PM 37.2614 -122.1486 139° Southeast 348 400 16,700 1,620 Climbing Oakland Center
10:14PM 37.1867 -122.0661 139° Southeast 356 410 18,100 1,260 Climbing Oakland Center
10:15PM 37.1092 -121.9833 140° Southeast 366 421 19,300 1,080 Climbing Oakland Center
10:16PM 37.0306 -121.8961 138° Southeast 377 434 20,300 1,020 Climbing Oakland Center
10:17PM 36.9489 -121.8078 139° Southeast 385 443 21,500 1,080 Climbing Oakland Center
10:18PM 36.8642 -121.7239 142° Southeast 389 448 22,600 900 Climbing Oakland Center
10:19PM 36.7847 -121.6356 138° Southeast 396 456 23,400 780 Climbing Oakland Center
10:20PM 36.6986 -121.5447 140° Southeast 404 465 24,200 780 Climbing Oakland Center
10:21PM 36.5936 -121.4328 139° Southeast 413 475 25,100 900 Climbing Oakland Center
10:23PM 36.5058 -121.3367 139° Southeast 416 479 26,100 780 Climbing Oakland Center
10:24PM 36.4164 -121.2428 140° Southeast 421 484 26,700 420 Climbing Oakland Center
10:25PM 36.3258 -121.1458 139° Southeast 427 491 27,000 120 Climbing Oakland Center
10:26PM 36.2328 -121.0483 140° Southeast 438 504 27,000  Level Oakland Center
10:27PM 36.1356 -120.9436 139° Southeast 457 526 27,000  Level Oakland Center
10:28PM 36.0378 -120.8411 140° Southeast 461 531 27,000  Level Oakland Center
10:29PM 35.9422 -120.7394 139° Southeast 452 520 27,000  Level Oakland Center
10:30PM 35.8469 -120.6389 139° Southeast 450 518 27,000  Level Oakland Center
10:31PM 35.7528 -120.5411 140° Southeast 444 511 27,000  Level Oakland Center
10:32PM 35.6583 -120.4436 140° Southeast 441 507 27,000  Level Oakland Center
10:33PM 35.5631 -120.3461 140° Southeast 440 506 27,000  Level Oakland Center
10:34PM 35.4533 -120.2331 140° Southeast 440 506 27,000  Level Oakland Center
10:35PM 35.3703 -120.1461 140° Southeast 446 513 27,000  Level Oakland Center
10:36PM 35.2744 -120.0500 141° Southeast 442 509 27,000  Level Oakland Center
10:37PM 35.1622 -119.9361 140° Southeast 438 504 27,000  Level Los Angeles Center
10:38PM 35.0711 -119.8372 138° Southeast 438 504 27,000 -600 Level Los Angeles Center
10:39PM 34.9906 -119.7261 131° Southeast 437 503 25,800 -2,040 Descending Los Angeles Center
10:40PM 34.9128 -119.6192 132° Southeast 425 489 22,900 -2,880 Descending Los Angeles Center
10:41PM 34.8353 -119.5164 133° Southeast 414 476 19,900 -2,820 Descending Los Angeles Center
10:42PM 34.7625 -119.4175 132° Southeast 397 457 17,200 -2,760 Descending Los Angeles Center
10:43PM 34.6772 -119.3050 133° Southeast 380 437 14,200 -2,520 Descending Los Angeles Center
10:44PM 34.6136 -119.2206 132° Southeast 383 441 12,000 -1,620 Descending Los Angeles Center
10:45PM 34.5433 -119.1292 133° Southeast 371 427 11,000 -600 Descending Los Angeles Center
10:46PM 34.4772 -119.0406 132° Southeast 286 329 10,800 -1,020 Descending Los Angeles Center
10:47PM 34.4347 -118.9672 125° Southeast 265 305 8,900 -1,860 Descending Los Angeles Center
10:48PM 34.3992 -118.8856 118° Southeast 268 308 7,100 -1,380 Descending Los Angeles Center
10:49PM 34.3611 -118.8094 121° Southeast 262 302 6,100 -540 Descending Los Angeles Center
10:50PM 34.3242 -118.7364 121° Southeast 256 295 6,000 -120 Descending Los Angeles Center
10:51PM 34.2986 -118.6539 111° Southeast 261 300 5,900 -660 Descending Los Angeles Center
10:52PM 34.3000 -118.6000 88° East 246 283 5,100 -1,020 Descending Southern California TRACON
10:53PM 34.3000 -118.5333 90° East 210 242 4,400 -900 Descending Southern California TRACON
10:54PM 34.3000 -118.4667 90° East 199 229 3,400 -1,200 Descending Southern California TRACON